Terminal Aerodrome Forecast
Issued by NWS

Home | Current Version | Previous Version | Text Only | Print | Product List | Glossary On
Versions: 1 2 3 4 5 6 7 8 9 10 11 12 13 14 15
607
FTUS46 KMTR 281120
TAFOAK
TAF
KOAK 281120Z 2812/2918 30007KT P6SM SCT006
     FM281500 29008KT P6SM FEW006 SCT120
     FM282100 30012KT P6SM FEW010 SCT120
     FM290300 29009KT P6SM FEW200
     FM290900 31005KT P6SM SCT010=

USA.gov is the U.S. government's official web portal to all federal, state and local government web resources and services.